Time;durP1;ratioP1;P1;durP2;ratioP2;P2;SDS_P1;SDS_P2;PMS_P1;PMS_P2;Temp;Humidity;BMP_temperature;BMP_pressure;BME280_temperature;BME280_humidity;BME280_pressure;Samples;Min_cycle;Max_cycle;Signal;HPM_P1;HPM_P2
2023/05/12 00:00:15;;;;;;;2.65;1.60;;;10.50;99.90;;;10.10;100.00;96947.19;4991760;28;20069;-35
2023/05/12 00:02:41;;;;;;;2.75;2.22;;;10.50;99.90;;;9.92;100.00;96917.22;4981120;28;20168;-35
2023/05/12 00:05:07;;;;;;;3.00;2.08;;;10.50;99.90;;;10.11;100.00;96947.13;4990309;28;20026;-35
2023/05/12 00:07:33;;;;;;;2.65;2.20;;;10.50;99.90;;;10.05;100.00;96925.44;4989602;28;20135;-35
2023/05/12 00:09:59;;;;;;;3.17;2.13;;;10.60;99.90;;;10.15;100.00;96942.59;4992415;28;20492;-35
2023/05/12 00:12:25;;;;;;;2.63;2.40;;;10.60;99.90;;;10.15;100.00;96932.06;5013541;28;20478;-35
2023/05/12 00:14:50;;;;;;;4.03;2.85;;;10.60;99.90;;;10.18;100.00;96936.34;4994703;28;20037;-35
2023/05/12 00:17:16;;;;;;;2.78;2.50;;;10.60;99.90;;;10.17;100.00;96932.00;4992631;28;20494;-35
2023/05/12 00:19:42;;;;;;;7.97;2.80;;;10.60;99.90;;;10.12;100.00;96932.19;4988978;28;20123;-35
2023/05/12 00:22:10;;;;;;;4.70;3.30;;;10.60;99.90;;;10.10;100.00;96932.28;4992051;28;20117;-35
2023/05/12 00:24:35;;;;;;;5.25;3.15;;;10.60;99.90;;;10.05;100.00;96926.34;4990025;28;20270;-35
2023/05/12 00:27:01;;;;;;;3.97;3.25;;;10.50;99.90;;;10.02;100.00;96923.81;4991558;28;20025;-35
2023/05/12 00:29:27;;;;;;;4.82;2.80;;;10.50;99.90;;;10.02;100.00;96926.44;4991173;28;20283;-35
2023/05/12 00:31:54;;;;;;;2.70;2.42;;;10.50;99.90;;;9.97;100.00;96927.56;4987548;28;20037;-35
2023/05/12 00:34:20;;;;;;;4.65;2.75;;;10.50;99.90;;;10.01;100.00;96926.50;4986065;28;20604;-35
2023/05/12 00:36:46;;;;;;;3.63;2.80;;;10.50;99.90;;;10.01;100.00;96929.16;4988153;28;20045;-35
2023/05/12 00:39:11;;;;;;;3.60;3.05;;;10.50;99.90;;;10.02;100.00;96934.34;4987583;28;20029;-35
2023/05/12 00:41:37;;;;;;;3.92;3.15;;;10.50;99.90;;;10.02;100.00;96922.97;4986160;28;20461;-35
2023/05/12 00:44:03;;;;;;;2.47;2.28;;;10.50;99.90;;;10.05;100.00;96934.25;4985629;28;20122;-35
2023/05/12 00:46:29;;;;;;;2.42;2.22;;;10.50;99.90;;;10.06;100.00;96928.03;4983525;28;20309;-35
2023/05/12 00:48:54;;;;;;;3.90;2.38;;;10.50;99.90;;;10.07;100.00;96929.75;4984852;28;20095;-35
2023/05/12 00:51:20;;;;;;;3.70;2.92;;;10.50;99.90;;;10.05;100.00;96923.69;4984198;28;20030;-35
2023/05/12 00:53:49;;;;;;;3.33;2.88;;;10.50;99.90;;;9.95;100.00;96909.19;4987631;28;20225;-35
2023/05/12 00:56:17;;;;;;;3.13;2.53;;;10.50;99.90;;;10.05;100.00;96928.09;4987772;28;20464;-35
2023/05/12 00:58:43;;;;;;;4.45;3.40;;;10.50;99.90;;;10.02;100.00;96925.59;4985522;28;20030;-35
2023/05/12 01:01:09;;;;;;;3.63;3.03;;;10.50;99.90;;;10.01;100.00;96927.38;4986197;28;20049;-35
2023/05/12 01:03:34;;;;;;;3.90;3.40;;;10.50;99.90;;;9.98;100.00;96927.50;4981838;28;20088;-35
2023/05/12 01:06:11;;;;;;;4.97;2.92;;;10.50;99.90;;;9.89;100.00;96909.47;4991758;28;20038;-35
2023/05/12 01:08:38;;;;;;;3.40;2.60;;;10.50;99.90;;;9.99;100.00;96936.25;4993737;28;20108;-35
2023/05/12 01:11:04;;;;;;;5.63;3.35;;;10.40;99.90;;;9.98;100.00;96924.00;5003210;28;20057;-35
2023/05/12 01:13:30;;;;;;;4.75;3.50;;;10.40;99.90;;;9.98;100.00;96929.28;4986201;28;20040;-35
2023/05/12 01:15:59;;;;;;;3.92;3.30;;;10.40;99.90;;;10.00;100.00;96930.09;4979628;28;20608;-35
2023/05/12 01:18:27;;;;;;;5.18;3.30;;;10.40;99.90;;;10.03;100.00;96922.91;4982009;28;20061;-35
2023/05/12 01:20:55;;;;;;;3.83;3.28;;;10.50;99.90;;;10.05;100.00;96923.69;4983162;28;20402;-35
2023/05/12 01:23:26;;;;;;;5.95;3.00;;;10.50;99.90;;;10.07;100.00;96926.28;4986429;28;20515;-35
2023/05/12 01:25:54;;;;;;;3.08;2.70;;;10.50;99.90;;;10.05;100.00;96922.81;4984092;28;20084;-35
2023/05/12 01:28:21;;;;;;;3.92;3.50;;;10.50;99.90;;;10.06;100.00;96932.44;4990153;28;20026;-35
2023/05/12 01:30:47;;;;;;;4.68;4.00;;;10.50;99.90;;;10.03;100.00;96924.66;4995108;28;20038;-35
2023/05/12 01:33:13;;;;;;;6.75;4.40;;;10.50;99.90;;;10.02;100.00;96921.19;5002156;28;20442;-35
2023/05/12 01:35:39;;;;;;;5.68;4.53;;;10.50;99.90;;;10.00;100.00;96917.75;4987399;28;20216;-35
2023/05/12 01:38:04;;;;;;;5.38;4.35;;;10.50;99.90;;;10.01;100.00;96918.59;4987316;28;20026;-35
2023/05/12 01:40:30;;;;;;;7.85;4.70;;;10.50;99.90;;;9.98;100.00;96919.59;4985403;28;20038;-35
2023/05/12 01:42:56;;;;;;;6.60;5.30;;;10.40;99.90;;;9.98;100.00;96924.88;4987475;28;20053;-35
2023/05/12 01:45:21;;;;;;;6.50;4.80;;;10.50;99.90;;;9.94;100.00;96910.97;4985871;28;20521;-35
2023/05/12 01:47:47;;;;;;;5.55;4.65;;;10.50;99.90;;;10.00;100.00;96920.41;4990405;28;20140;-35
2023/05/12 01:50:13;;;;;;;6.28;5.20;;;10.40;99.90;;;10.01;100.00;96921.25;4987398;28;20086;-35
2023/05/12 01:52:38;;;;;;;7.50;4.80;;;10.50;99.90;;;10.01;100.00;96922.09;4992826;28;20041;-35
2023/05/12 01:55:05;;;;;;;6.78;4.32;;;10.50;99.90;;;10.02;100.00;96915.91;4996129;28;20386;-35
2023/05/12 01:57:31;;;;;;;5.20;4.40;;;10.40;99.90;;;10.05;100.00;96917.56;4993760;28;20084;-35
2023/05/12 01:59:57;;;;;;;7.38;3.95;;;10.50;99.90;;;10.07;100.00;96924.47;4994803;28;20026;-35
2023/05/12 02:02:23;;;;;;;5.88;3.78;;;10.50;99.90;;;10.01;100.00;96910.72;4994980;28;20029;-35
2023/05/12 02:04:48;;;;;;;4.50;3.80;;;10.50;99.90;;;10.13;100.00;96923.38;4988082;28;20034;-35
2023/05/12 02:07:14;;;;;;;4.22;3.42;;;10.60;99.90;;;10.16;100.00;96922.34;4975466;28;20060;-35
2023/05/12 02:09:40;;;;;;;4.78;3.50;;;10.60;99.90;;;10.14;100.00;96914.56;4984688;28;20033;-35
2023/05/12 02:12:06;;;;;;;5.25;3.83;;;10.60;99.90;;;10.09;100.00;96917.38;4992649;28;20960;-35
2023/05/12 02:14:32;;;;;;;5.63;4.70;;;10.60;99.90;;;10.10;100.00;96924.38;4987928;28;20034;-35
2023/05/12 02:16:58;;;;;;;4.50;4.10;;;10.50;99.90;;;10.00;100.00;96907.22;4987707;28;20309;-35
2023/05/12 02:19:24;;;;;;;5.45;4.07;;;10.60;99.90;;;10.07;100.00;96924.47;4990937;28;20034;-35
2023/05/12 02:21:50;;;;;;;4.90;4.03;;;10.50;99.90;;;10.05;100.00;96921.06;4980309;28;20960;-35
2023/05/12 02:24:15;;;;;;;7.00;5.05;;;10.50;99.90;;;10.00;100.00;96912.50;4985015;28;20223;-35
2023/05/12 02:26:41;;;;;;;7.78;5.13;;;10.50;99.90;;;9.96;100.00;96916.19;4984189;28;20488;-35
2023/05/12 02:29:07;;;;;;;7.78;5.20;;;10.40;99.90;;;9.89;100.00;96920.00;4988930;28;20034;-35
2023/05/12 02:31:32;;;;;;;5.80;5.10;;;10.40;99.90;;;9.88;100.00;96918.28;4984891;28;20073;-35
2023/05/12 02:33:58;;;;;;;5.97;4.10;;;10.30;99.90;;;9.88;100.00;96921.75;4990175;28;20397;-35
2023/05/12 02:36:24;;;;;;;4.30;3.78;;;10.30;99.90;;;9.89;100.00;96918.22;4992451;28;20029;-35
2023/05/12 02:38:50;;;;;;;5.18;3.70;;;10.30;99.90;;;9.91;100.00;96923.41;4991748;28;20030;-35
2023/05/12 02:41:16;;;;;;;6.13;4.43;;;10.40;99.90;;;9.93;100.00;96917.16;4991963;28;20034;-35
2023/05/12 02:43:41;;;;;;;6.38;5.10;;;10.40;99.90;;;9.92;100.00;96912.81;4988430;28;20030;-35
2023/05/12 02:46:07;;;;;;;7.30;4.88;;;10.40;99.90;;;9.91;100.00;96912.88;4984850;28;21195;-35
2023/05/12 02:48:33;;;;;;;6.20;5.53;;;10.40;99.90;;;9.92;100.00;96919.84;4987738;28;20030;-35
2023/05/12 02:50:58;;;;;;;7.97;6.35;;;10.40;99.90;;;9.90;100.00;96911.16;4992362;28;20084;-35
2023/05/12 02:53:25;;;;;;;10.57;6.70;;;10.40;99.90;;;9.88;100.00;96913.84;4989954;28;20569;-35
2023/05/12 02:55:51;;;;;;;7.20;6.13;;;10.30;99.90;;;9.87;100.00;96901.63;4988797;28;20120;-35
2023/05/12 02:58:17;;;;;;;10.15;7.57;;;10.30;99.90;;;9.84;100.00;96909.66;4987134;28;20208;-35
2023/05/12 03:00:43;;;;;;;8.65;7.70;;;10.30;99.90;;;9.84;100.00;96916.69;4983285;28;20414;-35
2023/05/12 03:03:08;;;;;;;8.88;7.53;;;10.30;99.90;;;9.85;100.00;96913.13;4989971;28;20477;-35
2023/05/12 03:05:34;;;;;;;8.50;7.47;;;10.30;99.90;;;9.87;100.00;96913.91;4978402;28;20038;-35
2023/05/12 03:08:00;;;;;;;7.15;6.45;;;10.30;99.90;;;9.85;100.00;96899.97;4981020;28;20561;-35
2023/05/12 03:10:26;;;;;;;8.95;6.65;;;10.40;99.90;;;9.94;100.00;96918.00;4986494;28;20037;-35
2023/05/12 03:12:51;;;;;;;8.73;6.43;;;10.30;99.90;;;9.98;100.00;96913.47;4991970;28;20076;-35
2023/05/12 03:15:17;;;;;;;9.63;6.65;;;10.40;99.90;;;10.00;100.00;96922.19;4988673;28;20029;-35
2023/05/12 03:17:43;;;;;;;9.52;6.97;;;10.50;99.90;;;10.03;100.00;96922.91;4980961;28;20053;-35
2023/05/12 03:20:09;;;;;;;9.55;7.32;;;10.50;99.90;;;10.06;100.00;96917.50;4985793;28;20038;-35
2023/05/12 03:22:35;;;;;;;8.38;7.57;;;10.50;99.90;;;10.07;100.00;96918.38;4981242;28;20057;-35
2023/05/12 03:25:02;;;;;;;9.93;8.40;;;10.50;99.90;;;10.06;100.00;96917.50;4986736;28;20029;-35
2023/05/12 03:27:29;;;;;;;11.02;8.88;;;10.50;99.90;;;10.04;100.00;96924.59;5004411;28;20042;-35
2023/05/12 03:29:54;;;;;;;11.57;8.73;;;10.50;99.90;;;10.04;100.00;96919.34;4982606;28;20100;-35
2023/05/12 03:32:20;;;;;;;9.45;8.18;;;10.50;99.90;;;10.05;100.00;96918.44;4987910;28;20034;-36
2023/05/12 03:34:46;;;;;;;10.55;8.77;;;10.50;99.90;;;10.05;100.00;96914.91;4982593;28;20049;-35
2023/05/12 03:37:11;;;;;;;10.82;8.55;;;10.50;99.90;;;10.04;100.00;96923.75;4982389;28;20116;-35
2023/05/12 03:39:37;;;;;;;9.45;8.00;;;10.50;99.90;;;10.06;100.00;96925.38;4985699;28;20030;-35
2023/05/12 03:42:03;;;;;;;9.80;8.25;;;10.50;99.90;;;10.03;100.00;96908.84;4985721;28;20160;-35
2023/05/12 03:44:29;;;;;;;10.50;8.13;;;10.50;99.90;;;10.10;100.00;96919.09;4984011;28;20157;-35
2023/05/12 03:46:55;;;;;;;10.85;8.38;;;10.60;99.90;;;10.11;100.00;96918.16;4984868;28;20034;-35
2023/05/12 03:49:20;;;;;;;12.82;9.90;;;10.60;99.90;;;10.09;100.00;96917.38;4986294;28;20030;-35
2023/05/12 03:51:46;;;;;;;10.95;8.60;;;10.60;99.90;;;10.09;100.00;96914.72;4982351;28;20037;-35
2023/05/12 03:54:12;;;;;;;9.05;7.53;;;10.60;99.90;;;10.10;100.00;96918.22;4995854;28;20652;-35
2023/05/12 03:56:37;;;;;;;10.23;9.00;;;10.60;99.90;;;10.08;100.00;96915.63;4981611;28;20141;-35
2023/05/12 03:59:03;;;;;;;11.23;7.93;;;10.50;99.90;;;10.10;100.00;96910.31;4987055;28;20579;-35
2023/05/12 04:01:29;;;;;;;12.68;9.95;;;10.50;99.90;;;10.10;100.00;96912.94;4997874;28;20290;-35
2023/05/12 04:03:55;;;;;;;12.07;9.80;;;10.60;99.90;;;10.06;100.00;96906.09;4994020;28;20115;-35
2023/05/12 04:06:20;;;;;;;11.88;8.82;;;10.50;99.90;;;10.09;100.00;96911.25;4997103;28;20177;-35
2023/05/12 04:08:46;;;;;;;8.90;8.00;;;10.50;99.90;;;10.09;100.00;96901.56;4997677;28;20037;-35
2023/05/12 04:11:12;;;;;;;10.07;8.50;;;10.50;99.90;;;10.07;100.00;96898.13;4999569;28;20367;-35
2023/05/12 04:13:38;;;;;;;9.07;7.80;;;10.60;99.90;;;10.10;100.00;96905.91;5001812;28;20049;-35
2023/05/12 04:16:04;;;;;;;10.65;7.97;;;10.60;99.90;;;10.04;100.00;96895.63;4999836;28;20481;-35
2023/05/12 04:18:30;;;;;;;13.50;10.02;;;10.60;99.90;;;10.12;100.00;96906.69;4996393;28;20053;-35
2023/05/12 04:20:56;;;;;;;11.60;9.02;;;10.60;99.90;;;10.15;100.00;96915.41;4988658;28;20112;-35
2023/05/12 04:23:22;;;;;;;9.75;8.18;;;10.60;99.90;;;10.13;100.00;96905.75;4992695;28;20029;-35
2023/05/12 04:25:48;;;;;;;13.55;10.57;;;10.60;99.90;;;10.17;100.00;96906.50;4997879;28;20048;-35
2023/05/12 04:28:13;;;;;;;9.88;8.38;;;10.60;99.90;;;10.16;100.00;96902.16;4999073;28;20037;-35
2023/05/12 04:30:40;;;;;;;11.40;8.63;;;10.70;99.90;;;10.27;100.00;96912.22;4993803;28;20366;-35
2023/05/12 04:33:07;;;;;;;9.48;8.23;;;10.70;99.90;;;10.29;100.00;96919.13;4997739;28;20033;-35
2023/05/12 04:35:33;;;;;;;11.73;9.07;;;10.70;99.90;;;10.31;100.00;96911.19;4994434;28;20099;-35
2023/05/12 04:38:02;;;;;;;11.77;9.25;;;10.70;99.90;;;10.28;100.00;96911.28;4996378;28;20088;-35
2023/05/12 04:40:28;;;;;;;11.18;8.48;;;10.80;99.90;;;10.38;100.00;96923.19;5001415;28;20030;-35
2023/05/12 04:42:54;;;;;;;11.00;8.90;;;10.80;99.90;;;10.41;100.00;96923.06;4998981;28;20105;-35
2023/05/12 04:45:20;;;;;;;9.85;7.95;;;10.90;99.90;;;10.46;100.00;96926.34;4997985;28;20191;-35
2023/05/12 04:47:46;;;;;;;10.98;8.43;;;10.90;99.90;;;10.53;100.00;96926.91;5004999;22;20909;-35
2023/05/12 04:50:12;;;;;;;12.50;9.25;;;10.90;99.90;;;10.53;100.00;96928.72;5002244;28;20506;-35
2023/05/12 04:52:38;;;;;;;11.23;9.32;;;11.00;99.90;;;10.55;100.00;96930.38;4999188;28;20093;-35
2023/05/12 04:55:05;;;;;;;9.63;8.00;;;11.00;99.90;;;10.60;100.00;96938.06;5005473;28;20105;-36
2023/05/12 04:57:31;;;;;;;11.00;8.82;;;11.00;99.90;;;10.62;100.00;96937.09;5000257;28;20041;-35
2023/05/12 04:59:58;;;;;;;9.80;8.40;;;11.10;99.90;;;10.67;100.00;96942.97;5004422;28;20033;-36
2023/05/12 05:02:24;;;;;;;11.05;8.50;;;11.10;99.90;;;10.68;100.00;96938.59;5001163;28;20486;-36
2023/05/12 05:04:50;;;;;;;10.13;8.10;;;11.10;99.90;;;10.70;100.00;96945.50;5002988;28;20124;-36
2023/05/12 05:07:15;;;;;;;10.05;8.60;;;11.10;99.90;;;10.73;100.00;96939.25;5003051;28;20509;-36
2023/05/12 05:09:41;;;;;;;9.82;8.05;;;11.20;99.90;;;10.76;100.00;96938.22;5004757;28;20041;-36
2023/05/12 05:12:07;;;;;;;12.55;10.38;;;11.20;99.90;;;10.83;100.00;96940.53;5001903;28;20572;-36
2023/05/12 05:14:33;;;;;;;11.90;8.77;;;11.30;99.90;;;10.86;100.00;96939.53;4997649;28;20100;-36
2023/05/12 05:16:59;;;;;;;12.40;8.80;;;11.40;99.90;;;10.91;100.00;96936.69;4996833;28;20033;-36
2023/05/12 05:19:25;;;;;;;13.57;9.43;;;11.40;99.90;;;10.93;100.00;96943.63;4997077;28;20505;-36
2023/05/12 05:21:52;;;;;;;11.45;8.65;;;11.40;99.90;;;10.97;100.00;96937.25;4995641;28;20042;-36
2023/05/12 05:24:18;;;;;;;13.23;9.45;;;11.40;99.90;;;11.00;100.00;96938.88;4998626;28;20117;-36
2023/05/12 05:26:44;;;;;;;14.77;10.07;;;11.40;99.90;;;10.95;100.00;96944.41;4996927;28;20071;-36
2023/05/12 05:29:10;;;;;;;11.30;8.85;;;11.40;99.90;;;11.02;100.00;96948.47;4996694;28;20653;-36
2023/05/12 05:31:36;;;;;;;10.82;8.73;;;11.50;99.90;;;11.02;100.00;96951.09;4994980;28;20037;-36
2023/05/12 05:34:01;;;;;;;11.10;8.02;;;11.40;99.90;;;11.03;100.00;96950.16;4996353;28;20045;-36
2023/05/12 05:36:28;;;;;;;11.55;8.98;;;11.50;99.90;;;11.09;100.00;96954.31;4997173;28;20037;-36
2023/05/12 05:38:54;;;;;;;11.50;8.68;;;11.50;99.90;;;11.14;100.00;96954.94;4994373;28;20087;-36
2023/05/12 05:41:21;;;;;;;10.38;8.65;;;11.60;99.90;;;11.19;100.00;96958.22;4996731;28;20033;-36
2023/05/12 05:43:47;;;;;;;11.77;8.93;;;11.60;99.90;;;11.22;100.00;96960.72;4995203;28;20025;-36
2023/05/12 05:46:12;;;;;;;9.63;7.55;;;11.60;99.90;;;11.24;100.00;96963.31;4995731;28;20148;-36
2023/05/12 05:48:38;;;;;;;9.48;6.95;;;11.70;99.90;;;11.28;100.00;96971.00;4993482;28;20030;-36
2023/05/12 05:51:05;;;;;;;10.00;7.93;;;11.70;99.90;;;11.34;100.00;96966.34;4996661;28;20038;-36
2023/05/12 05:53:31;;;;;;;11.73;8.75;;;11.80;99.90;;;11.34;100.00;96966.34;4994729;28;20065;-36
2023/05/12 05:55:56;;;;;;;11.02;8.82;;;11.80;99.90;;;11.33;100.00;96964.66;4995245;28;20033;-36
2023/05/12 05:58:22;;;;;;;11.73;9.27;;;11.80;99.90;;;11.39;100.00;96969.63;4994933;28;20482;-36
2023/05/12 06:00:48;;;;;;;11.45;9.25;;;11.80;99.90;;;11.43;100.00;96965.91;4995465;28;20061;-36
2023/05/12 06:03:14;;;;;;;10.63;8.13;;;11.80;99.90;;;11.54;100.00;96962.78;4991502;28;20539;-36
2023/05/12 06:05:41;;;;;;;12.02;8.75;;;11.90;99.90;;;11.56;100.00;96966.22;4992860;28;20032;-36
2023/05/12 06:08:09;;;;;;;11.05;8.98;;;12.00;99.90;;;11.61;100.00;96969.47;4995406;28;20046;-36
2023/05/12 06:10:35;;;;;;;11.98;8.38;;;12.00;99.90;;;11.67;100.00;96965.72;4996824;28;20029;-36
2023/05/12 06:13:01;;;;;;;9.32;7.25;;;12.10;99.90;;;11.64;100.00;96970.19;4994378;28;20088;-36
2023/05/12 06:15:27;;;;;;;8.38;6.68;;;12.10;99.90;;;11.65;100.00;96974.53;4988637;28;20509;-36
2023/05/12 06:17:53;;;;;;;8.13;6.93;;;12.10;99.90;;;11.67;100.00;96971.84;4991171;28;20054;-36
2023/05/12 06:20:19;;;;;;;10.38;8.38;;;12.10;99.90;;;11.57;100.00;96983.75;4998115;28;20034;-36
2023/05/12 06:22:45;;;;;;;8.32;7.03;;;12.10;99.90;;;11.61;100.00;96983.56;4987627;28;20037;-36
2023/05/12 06:25:11;;;;;;;10.55;7.22;;;12.10;99.90;;;11.61;100.00;96973.00;4994404;28;20053;-36
2023/05/12 06:27:37;;;;;;;8.52;6.90;;;12.10;99.90;;;11.68;100.00;96983.25;4994801;28;20064;-36
2023/05/12 06:30:03;;;;;;;7.85;6.55;;;12.10;99.90;;;11.67;100.00;96969.19;4998895;28;20113;-36
2023/05/12 06:32:29;;;;;;;8.27;6.57;;;12.20;99.90;;;11.73;100.00;96975.97;4997280;28;20040;-36
2023/05/12 06:34:55;;;;;;;6.50;5.65;;;12.20;99.90;;;11.84;100.00;96981.56;4989455;28;20045;-36
2023/05/12 06:37:20;;;;;;;9.02;6.18;;;12.30;99.90;;;11.94;100.00;96985.53;4993182;28;20092;-36
2023/05/12 06:39:46;;;;;;;8.35;6.35;;;12.40;99.90;;;12.03;100.00;96981.56;4994441;28;20121;-36
2023/05/12 06:42:12;;;;;;;9.77;7.03;;;12.50;99.90;;;12.17;100.00;96988.81;4994743;28;20030;-36
2023/05/12 06:44:37;;;;;;;5.93;5.20;;;12.60;99.90;;;12.32;100.00;96982.75;4998040;28;20049;-36
2023/05/12 06:47:03;;;;;;;6.90;5.40;;;12.80;99.90;;;12.50;100.00;96990.69;4991813;28;20037;-36
2023/05/12 06:49:30;;;;;;;8.63;6.30;;;12.90;99.90;;;12.63;100.00;96986.47;4997227;28;20030;-36
2023/05/12 06:51:55;;;;;;;10.20;7.40;;;13.10;99.90;;;12.71;100.00;96984.28;4996056;28;20025;-36
2023/05/12 06:54:21;;;;;;;11.13;5.93;;;13.20;99.90;;;12.80;100.00;96988.25;4996365;28;22987;-36
2023/05/12 06:56:47;;;;;;;6.47;5.38;;;13.30;99.90;;;12.97;100.00;96992.63;4995494;28;20472;-36
2023/05/12 06:59:13;;;;;;;10.00;7.55;;;13.40;99.90;;;13.04;100.00;96991.38;5003907;28;20034;-36
2023/05/12 07:01:39;;;;;;;10.38;6.30;;;13.50;99.90;;;13.21;100.00;96987.84;5001547;28;20026;-36
2023/05/12 07:04:06;;;;;;;7.35;5.78;;;13.60;99.90;;;13.35;100.00;96992.38;5008300;28;20054;-36
2023/05/12 07:06:33;;;;;;;7.78;6.20;;;13.80;99.90;;;13.51;100.00;96993.28;5003947;28;20038;-36
2023/05/12 07:08:59;;;;;;;7.70;6.05;;;13.90;99.90;;;13.64;100.00;97001.41;5005047;28;20080;-36
2023/05/12 07:11:25;;;;;;;7.05;5.80;;;14.00;99.90;;;13.73;100.00;96997.41;5003526;28;20065;-36
2023/05/12 07:13:51;;;;;;;6.38;5.22;;;14.20;99.90;;;13.82;100.00;96996.88;5007780;28;20105;-36
2023/05/12 07:16:18;;;;;;;9.15;5.72;;;14.20;99.90;;;13.93;100.00;96997.09;5002981;28;20482;-36
2023/05/12 07:18:44;;;;;;;10.98;6.45;;;14.30;99.90;;;14.04;100.00;96999.16;5006068;28;20441;-36
2023/05/12 07:21:10;;;;;;;7.93;4.93;;;14.40;99.90;;;14.23;100.00;96996.31;5008443;28;20117;-36
2023/05/12 07:23:36;;;;;;;8.63;5.55;;;14.60;99.90;;;14.38;100.00;96996.34;5002991;28;20116;-36
2023/05/12 07:26:04;;;;;;;7.18;5.63;;;14.80;99.90;;;14.54;100.00;96997.16;5001442;28;20076;-36
2023/05/12 07:28:35;;;;;;;5.70;5.00;;;15.00;99.90;;;14.61;100.00;97001.19;5001868;28;21617;-36
2023/05/12 07:31:03;;;;;;;6.78;5.07;;;15.10;99.90;;;14.63;100.00;96998.44;5003338;28;20038;-36
2023/05/12 07:33:30;;;;;;;6.22;4.63;;;15.30;99.90;;;14.69;100.00;97000.72;5000298;28;20470;-36
2023/05/12 07:35:55;;;;;;;5.10;4.22;;;15.30;99.90;;;14.75;100.00;96996.84;4999935;28;20033;-36
2023/05/12 07:38:22;;;;;;;5.97;4.45;;;15.40;99.90;;;14.89;100.00;96992.41;5000587;28;20029;-36
2023/05/12 07:40:48;;;;;;;8.35;4.00;;;15.40;99.90;;;14.93;100.00;96993.09;5001542;28;20508;-36
2023/05/12 07:43:16;;;;;;;4.75;3.78;;;15.40;99.90;;;14.82;100.00;96996.38;5004239;28;20438;-36
2023/05/12 07:45:42;;;;;;;5.80;3.40;;;15.40;99.90;;;14.73;100.00;97004.03;4995685;28;20494;-36
2023/05/12 07:48:10;;;;;;;4.60;2.78;;;15.30;99.90;;;14.70;100.00;96995.31;5000832;28;20116;-36
2023/05/12 07:50:36;;;;;;;4.63;3.25;;;15.20;99.90;;;14.81;100.00;96991.16;4998927;28;20037;-36
2023/05/12 07:53:03;;;;;;;5.05;3.80;;;15.30;99.90;;;14.95;100.00;96992.97;5001884;28;20454;-36
2023/05/12 07:55:29;;;;;;;5.28;4.20;;;15.40;99.90;;;15.02;100.00;96983.69;5001185;28;20049;-36
2023/05/12 07:57:54;;;;;;;4.47;3.72;;;15.60;99.90;;;15.01;100.00;96969.56;5001336;28;20494;-36
2023/05/12 08:00:20;;;;;;;7.25;4.30;;;15.60;99.90;;;14.99;100.00;96992.69;5000663;28;20034;-36
2023/05/12 08:02:46;;;;;;;4.30;3.58;;;15.70;99.90;;;14.98;100.00;96990.13;5003016;28;20114;-36
2023/05/12 08:05:12;;;;;;;6.65;3.78;;;15.60;99.90;;;14.95;100.00;96987.66;5001901;28;20034;-36
2023/05/12 08:07:42;;;;;;;4.30;3.55;;;15.70;99.90;;;15.02;100.00;96991.63;4998351;28;20746;-36
2023/05/12 08:10:12;;;;;;;4.32;3.67;;;15.70;99.90;;;15.08;100.00;96994.78;5001513;28;20037;-36
2023/05/12 08:12:39;;;;;;;4.20;2.95;;;15.80;99.90;;;15.12;100.00;96992.78;4996923;28;20034;-35
2023/05/12 08:15:06;;;;;;;3.33;2.67;;;15.80;99.90;;;15.26;100.00;96997.25;5000229;28;20044;-35
2023/05/12 08:17:32;;;;;;;3.25;2.53;;;15.80;99.90;;;15.35;100.00;96993.19;4997077;28;21905;-36
2023/05/12 08:19:58;;;;;;;2.25;2.05;;;16.00;99.90;;;15.55;100.00;96991.91;5001830;28;20026;-35
2023/05/12 08:22:24;;;;;;;3.42;2.70;;;16.10;99.90;;;15.73;100.00;96988.06;4996693;28;20048;-36
2023/05/12 08:24:51;;;;;;;5.35;2.97;;;16.30;99.90;;;16.00;100.00;96990.78;4999284;28;20068;-36
2023/05/12 08:27:17;;;;;;;3.17;2.17;;;16.50;99.90;;;15.99;99.55;96996.22;5003867;28;20029;-36
2023/05/12 08:29:43;;;;;;;6.88;2.90;;;16.60;99.90;;;16.21;100.00;96993.84;5001362;28;20044;-36
2023/05/12 08:32:08;;;;;;;5.55;3.30;;;16.80;99.90;;;16.40;97.76;96988.16;5002620;28;20029;-36
2023/05/12 08:34:34;;;;;;;4.18;3.05;;;17.00;99.90;;;16.57;97.25;96992.34;4999454;28;20042;-36
2023/05/12 08:37:00;;;;;;;5.57;3.22;;;17.10;99.90;;;16.61;96.48;96991.16;4998522;28;20029;-36
2023/05/12 08:39:29;;;;;;;2.95;2.65;;;17.20;99.90;;;16.69;95.27;96992.44;4997669;28;20057;-36
2023/05/12 08:42:29;;;;;;;3.28;2.60;;;17.30;99.90;;;16.69;93.03;97000.44;4997098;28;20037;-36
2023/05/12 08:44:56;;;;;;;3.25;2.08;;;17.30;99.90;;;16.84;94.35;96998.59;4994824;28;20041;-36
2023/05/12 08:47:24;;;;;;;2.83;2.28;;;17.30;99.90;;;16.84;91.75;97002.09;5000116;28;20037;-36
2023/05/12 08:49:59;;;;;;;4.63;1.80;;;17.40;99.90;;;17.06;96.72;96995.28;4999653;28;20025;-36
2023/05/12 08:52:31;;;;;;;2.33;2.10;;;17.60;99.90;;;17.08;85.09;97001.34;4994163;28;20092;-36
2023/05/12 08:54:58;;;;;;;3.38;2.70;;;17.70;99.90;;;17.04;81.66;96997.22;4994754;28;20092;-36
2023/05/12 08:57:24;;;;;;;2.80;2.30;;;17.60;99.90;;;17.08;82.73;97004.00;4998545;28;20066;-36
2023/05/12 08:59:55;;;;;;;3.47;1.98;;;17.60;99.90;;;17.15;85.87;97006.13;4998199;28;20036;-36
2023/05/12 09:02:23;;;;;;;3.15;2.42;;;17.50;99.90;;;17.07;82.81;97002.31;4999685;28;20498;-36
2023/05/12 09:04:50;;;;;;;3.08;2.40;;;17.50;99.90;;;16.99;86.41;97002.84;4998763;28;20043;-36
2023/05/12 09:07:17;;;;;;;3.13;2.00;;;17.50;99.90;;;16.95;89.92;97004.88;5000766;28;20296;-36
2023/05/12 09:09:46;;;;;;;4.25;2.38;;;17.50;99.90;;;16.88;85.73;97003.56;4993503;28;20022;-36
2023/05/12 09:12:15;;;;;;;3.75;2.20;;;17.50;99.90;;;16.92;86.40;96998.91;4996719;28;20486;-36
2023/05/12 09:14:45;;;;;;;4.90;2.25;;;17.50;99.90;;;16.89;93.22;96996.47;4996358;28;20029;-36
2023/05/12 09:17:12;;;;;;;2.72;2.40;;;17.60;99.90;;;17.00;91.74;96999.22;4999334;28;20029;-36
2023/05/12 09:19:38;;;;;;;3.33;2.40;;;17.60;99.90;;;16.99;87.39;97002.84;5014780;28;20061;-36
2023/05/12 09:22:04;;;;;;;3.35;2.50;;;17.60;99.90;;;16.98;89.01;96999.34;4998111;28;20407;-36
2023/05/12 09:24:39;;;;;;;2.63;1.85;;;17.50;99.90;;;16.96;92.20;96998.59;5001145;28;20034;-36
2023/05/12 09:27:06;;;;;;;2.40;2.10;;;17.40;99.90;;;16.91;92.02;97002.53;4996149;28;20041;-36
2023/05/12 09:29:32;;;;;;;1.83;1.55;;;17.40;99.90;;;16.91;94.30;97008.69;5001116;28;20030;-37
2023/05/12 09:32:01;;;;;;;5.07;2.13;;;17.40;99.90;;;16.74;95.32;96996.53;5004002;28;20514;-37
2023/05/12 09:34:34;;;;;;;4.70;3.00;;;17.40;99.90;;;16.70;94.65;96994.16;5001755;28;20030;-37
2023/05/12 09:37:04;;;;;;;1.83;1.73;;;17.30;99.90;;;16.59;97.48;96994.88;5000655;28;20061;-37
2023/05/12 09:39:30;;;;;;;4.05;2.40;;;17.10;99.90;;;16.51;94.03;97002.53;5004187;28;20052;-37
2023/05/12 09:41:56;;;;;;;2.72;2.17;;;17.00;99.90;;;16.52;97.07;97002.44;5002910;28;20040;-37
2023/05/12 09:44:23;;;;;;;1.73;1.40;;;17.00;99.90;;;16.46;96.40;96996.69;5005504;28;20334;-37
2023/05/12 09:46:50;;;;;;;3.60;2.38;;;16.90;99.90;;;16.27;96.64;96997.06;4998752;28;20040;-37
2023/05/12 09:49:27;;;;;;;2.55;1.92;;;16.80;99.90;;;16.16;98.31;96993.28;4997774;28;20505;-36
2023/05/12 09:51:56;;;;;;;3.30;2.50;;;16.60;99.90;;;15.94;96.82;96990.34;4998921;28;20056;-36
2023/05/12 09:54:30;;;;;;;2.10;1.90;;;16.40;99.90;;;15.90;100.00;96995.00;4994717;28;20026;-36
2023/05/12 09:57:07;;;;;;;4.15;2.47;;;16.30;99.90;;;15.92;100.00;96992.25;4979942;28;20038;-36
2023/05/12 09:59:35;;;;;;;2.92;2.25;;;16.30;99.90;;;16.12;100.00;96998.94;4988621;28;20903;-36
2023/05/12 10:02:04;;;;;;;4.05;2.90;;;16.40;99.90;;;16.21;100.00;96998.31;4990244;28;20034;-37
2023/05/12 10:04:48;;;;;;;3.05;2.72;;;16.70;99.90;;;16.52;96.07;96996.25;4997246;28;20038;-37
2023/05/12 10:07:15;;;;;;;3.17;2.88;;;17.00;99.90;;;16.84;94.98;96990.59;4992511;28;20040;-37
2023/05/12 10:09:43;;;;;;;2.95;2.65;;;17.40;99.90;;;17.01;91.14;96995.59;4992911;28;20030;-37